createdAt,value
2019-02-21T00:00:54.793Z,101727.58
2019-02-21T00:03:23.213Z,101730.52
2019-02-21T00:05:51.512Z,101723.09
2019-02-21T00:08:19.858Z,101721.07
2019-02-21T00:10:48.160Z,101721.30
2019-02-21T00:13:16.461Z,101716.48
2019-02-21T00:15:44.749Z,101724.58
2019-02-21T00:18:13.365Z,101729.30
2019-02-21T00:20:41.658Z,101729.61
2019-02-21T00:23:09.961Z,101732.10
2019-02-21T00:25:38.606Z,101734.59
2019-02-21T00:28:06.908Z,101735.85
2019-02-21T00:30:35.681Z,101737.59
2019-02-21T00:33:03.970Z,101744.61
2019-02-21T00:35:32.295Z,101746.35
2019-02-21T00:38:00.590Z,101738.64
2019-02-21T00:40:28.937Z,101736.56
2019-02-21T00:42:57.238Z,101740.35
2019-02-21T00:45:25.553Z,101736.98
2019-02-21T00:47:54.097Z,101735.41
2019-02-21T00:50:22.412Z,101736.00
2019-02-21T00:52:50.701Z,101731.92
2019-02-21T00:55:19.352Z,101728.29
2019-02-21T00:57:47.641Z,101732.19
2019-02-21T01:00:15.952Z,101728.97
2019-02-21T01:02:44.250Z,101734.27
2019-02-21T01:05:12.538Z,101731.02
2019-02-21T01:07:41.138Z,101737.09
2019-02-21T01:10:09.509Z,101739.98
2019-02-21T01:12:37.818Z,101737.52
2019-02-21T01:15:08.690Z,101740.53
2019-02-21T01:17:36.999Z,101735.28
2019-02-21T01:20:06.266Z,101734.42
2019-02-21T01:22:34.902Z,101744.22
2019-02-21T01:25:03.192Z,101745.92
2019-02-21T01:27:31.851Z,101745.17
2019-02-21T01:30:00.258Z,101748.84
2019-02-21T01:32:29.119Z,101744.75
2019-02-21T01:34:57.440Z,101738.05
2019-02-21T01:37:25.808Z,101738.84
2019-02-21T01:39:54.473Z,101745.84
2019-02-21T01:42:22.871Z,101749.41
2019-02-21T01:44:51.180Z,101741.87
2019-02-21T01:47:19.907Z,101739.45
2019-02-21T01:49:48.222Z,101751.45
2019-02-21T01:52:16.547Z,101742.33
2019-02-21T01:54:44.863Z,101738.68
2019-02-21T01:57:13.423Z,101750.58
2019-02-21T01:59:41.836Z,101743.88
2019-02-21T02:02:10.203Z,101742.02
2019-02-21T02:04:38.601Z,101747.77
2019-02-21T02:07:06.906Z,101736.02
2019-02-21T02:09:35.524Z,101748.95
2019-02-21T02:12:03.818Z,101752.79
2019-02-21T02:14:32.233Z,101758.50
2019-02-21T02:17:00.524Z,101757.27
2019-02-21T02:19:28.831Z,101758.78
2019-02-21T02:21:57.409Z,101757.78
2019-02-21T02:24:25.702Z,101762.48
2019-02-21T02:26:54.376Z,101766.69
2019-02-21T02:29:22.956Z,101767.71
2019-02-21T02:31:51.269Z,101766.98
2019-02-21T02:34:19.600Z,101762.59
2019-02-21T02:36:47.893Z,101765.68
2019-02-21T02:39:16.197Z,101767.06
2019-02-21T02:41:44.502Z,101765.76
2019-02-21T02:44:12.803Z,101764.09
2019-02-21T02:46:41.240Z,101758.55
2019-02-21T02:49:09.491Z,101761.81
2019-02-21T02:51:37.829Z,101762.01
2019-02-21T02:54:06.435Z,101764.88
2019-02-21T02:56:34.744Z,101765.27
2019-02-21T02:59:03.108Z,101769.08
2019-02-21T03:01:35.102Z,101772.64
2019-02-21T03:04:02.356Z,101775.63
2019-02-21T03:06:30.907Z,101769.36
2019-02-21T03:08:59.206Z,101772.06
2019-02-21T03:11:27.516Z,101770.92
2019-02-21T03:13:55.837Z,101765.37
2019-02-21T03:16:24.148Z,101770.34
2019-02-21T03:18:52.824Z,101768.80
2019-02-21T03:21:21.391Z,101772.44
2019-02-21T03:23:49.684Z,101769.23
2019-02-21T03:26:17.992Z,101768.00
2019-02-21T03:28:46.292Z,101768.80
2019-02-21T03:31:14.619Z,101767.00
2019-02-21T03:33:42.914Z,101769.58
2019-02-21T03:36:11.232Z,101770.48
2019-02-21T03:38:39.765Z,101771.00
2019-02-21T03:41:08.091Z,101774.85
2019-02-21T03:43:36.387Z,101769.13
2019-02-21T03:46:04.717Z,101771.64
2019-02-21T03:48:33.013Z,101771.28
2019-02-21T03:51:01.315Z,101777.00
2019-02-21T03:53:29.715Z,101771.48
2019-02-21T03:55:58.040Z,101777.76
2019-02-21T03:58:26.702Z,101774.70
2019-02-21T04:00:55.619Z,101768.67
2019-02-21T04:03:23.927Z,101766.94
2019-02-21T04:05:52.233Z,101765.66
2019-02-21T04:08:20.534Z,101764.91
2019-02-21T04:10:48.856Z,101767.09
2019-02-21T04:13:17.156Z,101766.09
2019-02-21T04:15:45.472Z,101763.87
2019-02-21T04:18:13.770Z,101761.92
2019-02-21T04:20:42.070Z,101758.03
2019-02-21T04:23:10.409Z,101755.05
2019-02-21T04:25:38.695Z,101760.28
2019-02-21T04:28:08.100Z,101758.78
2019-02-21T04:30:36.405Z,101755.85
2019-02-21T04:33:04.969Z,101753.40
2019-02-21T04:35:33.368Z,101744.39
2019-02-21T04:38:02.028Z,101745.63
2019-02-21T04:40:30.338Z,101756.77
2019-02-21T04:42:58.978Z,101754.15
2019-02-21T04:45:27.280Z,101753.40
2019-02-21T04:47:55.692Z,101749.11
2019-02-21T04:50:23.994Z,101750.14
2019-02-21T04:52:52.385Z,101754.63
2019-02-21T04:55:20.691Z,101743.08
2019-02-21T04:57:49.000Z,101743.35
2019-02-21T05:00:17.308Z,101748.86
2019-02-21T05:02:46.548Z,101741.56
2019-02-21T05:05:14.864Z,101743.98
2019-02-21T05:07:43.172Z,101754.63
2019-02-21T05:10:11.505Z,101750.14
2019-02-21T05:12:39.809Z,101751.73
2019-02-21T05:15:08.124Z,101743.56
2019-02-21T05:17:36.437Z,101743.84
2019-02-21T05:20:05.723Z,101742.80
2019-02-21T05:22:34.022Z,101744.36
2019-02-21T05:25:02.342Z,101744.55
2019-02-21T05:27:32.277Z,101740.03
2019-02-21T05:30:00.620Z,101741.73
2019-02-21T05:32:41.069Z,101740.66
2019-02-21T05:35:05.218Z,101742.25
2019-02-21T05:37:35.185Z,101734.12
2019-02-21T05:40:05.143Z,101737.80
2019-02-21T05:42:51.525Z,101743.95
2019-02-21T05:45:24.284Z,101744.44
2019-02-21T05:47:54.236Z,101738.48
2019-02-21T05:50:24.526Z,101737.53
2019-02-21T05:53:03.239Z,101734.08
2019-02-21T05:55:49.767Z,101732.84
2019-02-21T05:58:28.997Z,101738.92
2019-02-21T06:01:08.288Z,101745.86
2019-02-21T06:03:38.224Z,101750.27
2019-02-21T06:06:10.865Z,101743.44
2019-02-21T06:08:41.149Z,101745.31
2019-02-21T06:11:23.058Z,101755.27
2019-02-21T06:13:52.969Z,101749.59
2019-02-21T06:16:40.773Z,101758.67
2019-02-21T06:19:10.887Z,101754.58
2019-02-21T06:21:41.128Z,101759.73
2019-02-21T06:24:27.424Z,101751.42
2019-02-21T06:26:57.374Z,101759.11
2019-02-21T06:29:27.325Z,101752.88
2019-02-21T06:31:55.621Z,101760.33
2019-02-21T06:34:23.946Z,101763.78
2019-02-21T06:36:52.237Z,101770.72
2019-02-21T06:39:20.552Z,101777.09
2019-02-21T06:41:59.065Z,101781.20
2019-02-21T06:44:19.248Z,101783.07
2019-02-21T06:46:47.859Z,101780.56
2019-02-21T06:49:16.179Z,101776.64
2019-02-21T06:51:44.470Z,101777.72
2019-02-21T06:54:12.779Z,101777.53
2019-02-21T06:56:41.086Z,101778.95
2019-02-21T06:59:09.763Z,101779.03
2019-02-21T07:01:38.431Z,101778.84
2019-02-21T07:04:07.012Z,101786.31
2019-02-21T07:06:35.315Z,101790.80
2019-02-21T07:09:04.601Z,101793.03
2019-02-21T07:11:32.996Z,101795.63
2019-02-21T07:14:01.292Z,101796.71
2019-02-21T07:16:29.615Z,101795.73
2019-02-21T07:18:57.913Z,101798.91
2019-02-21T07:21:26.327Z,101802.64
2019-02-21T07:23:54.645Z,101804.00
2019-02-21T07:26:23.940Z,101807.25
2019-02-21T07:28:52.233Z,101809.95
2019-02-21T07:31:28.948Z,101806.27
2019-02-21T07:33:50.669Z,101804.91
2019-02-21T07:36:18.963Z,101812.61
2019-02-21T07:38:47.801Z,101811.73
2019-02-21T07:41:18.542Z,101819.39
2019-02-21T07:43:46.395Z,101823.13
2019-02-21T07:46:14.718Z,101818.16
2019-02-21T07:48:43.023Z,101813.27
2019-02-21T07:51:13.382Z,101814.02
2019-02-21T07:53:41.649Z,101818.58
2019-02-21T07:56:09.970Z,101821.06
2019-02-21T07:58:39.658Z,101828.91
2019-02-21T08:01:08.098Z,101833.69
2019-02-21T08:03:44.497Z,101832.52
2019-02-21T08:06:07.021Z,101827.53
2019-02-21T08:08:35.336Z,101831.45
2019-02-21T08:11:03.618Z,101841.77
2019-02-21T08:13:31.923Z,101836.05
2019-02-21T08:16:00.287Z,101848.53
2019-02-21T08:18:28.584Z,101843.31
2019-02-21T08:20:57.036Z,101848.58
2019-02-21T08:23:25.384Z,101857.14
2019-02-21T08:25:54.058Z,101865.33
2019-02-21T08:28:22.464Z,101864.05
2019-02-21T08:30:50.772Z,101865.26
2019-02-21T08:33:20.699Z,101868.02
2019-02-21T08:35:49.015Z,101868.84
2019-02-21T08:38:17.308Z,101868.72
2019-02-21T08:40:45.601Z,101863.61
2019-02-21T08:43:13.975Z,101859.19
2019-02-21T08:45:42.289Z,101864.92
2019-02-21T08:48:13.291Z,101861.37
2019-02-21T08:50:40.925Z,101862.58
2019-02-21T08:53:09.408Z,101862.72
2019-02-21T08:55:40.374Z,101863.44
2019-02-21T08:58:08.143Z,101864.64
2019-02-21T09:00:36.428Z,101865.27
2019-02-21T09:03:04.919Z,101867.06
2019-02-21T09:05:33.253Z,101861.44
2019-02-21T09:08:01.577Z,101860.76
2019-02-21T09:10:29.877Z,101870.78
2019-02-21T09:12:58.199Z,101866.83
2019-02-21T09:15:26.853Z,101869.84
2019-02-21T09:17:55.189Z,101887.18
2019-02-21T09:20:23.499Z,101879.86
2019-02-21T09:22:51.810Z,101882.14
2019-02-21T09:25:20.117Z,101886.20
2019-02-21T09:27:48.735Z,101890.56
2019-02-21T09:30:18.581Z,101889.94
2019-02-21T09:32:47.240Z,101897.58
2019-02-21T09:35:15.579Z,101892.77
2019-02-21T09:37:43.932Z,101894.19
2019-02-21T09:40:14.699Z,101896.96
2019-02-21T09:42:43.034Z,101900.33
2019-02-21T09:45:16.290Z,101900.33
2019-02-21T09:47:44.583Z,101909.03
2019-02-21T09:50:13.141Z,101906.59
2019-02-21T09:52:41.446Z,101906.10
2019-02-21T09:55:12.456Z,101906.73
2019-02-21T09:57:40.766Z,101901.95
2019-02-21T10:00:12.256Z,101908.09
2019-02-21T10:02:42.088Z,101912.74
2019-02-21T10:05:10.816Z,101910.34
2019-02-21T10:07:39.157Z,101919.19
2019-02-21T10:10:10.792Z,101913.02
2019-02-21T10:12:39.133Z,101914.64
2019-02-21T10:15:09.882Z,101908.19
2019-02-21T10:17:38.200Z,101905.30
2019-02-21T10:20:20.945Z,101909.52
2019-02-21T10:22:49.656Z,101904.19
2019-02-21T10:25:23.168Z,101919.42
2019-02-21T10:27:51.010Z,101921.09
2019-02-21T10:30:21.429Z,101925.64
2019-02-21T10:32:50.119Z,101925.43
2019-02-21T10:35:18.544Z,101917.28
2019-02-21T10:37:46.909Z,101908.64
2019-02-21T10:40:15.960Z,101912.69
2019-02-21T10:42:44.557Z,101900.09
2019-02-21T10:45:18.012Z,101905.76
2019-02-21T10:47:46.302Z,101905.17
2019-02-21T10:50:19.800Z,101902.09
2019-02-21T10:52:48.698Z,101906.98
2019-02-21T10:55:17.859Z,101897.94
2019-02-21T10:57:46.344Z,101903.96
2019-02-21T11:00:23.063Z,101898.04
2019-02-21T11:02:51.444Z,101898.95
2019-02-21T11:05:19.760Z,101888.81
2019-02-21T11:07:48.068Z,101890.02
2019-02-21T11:10:20.053Z,101886.46
2019-02-21T11:12:48.389Z,101885.68
2019-02-21T11:15:18.725Z,101880.02
2019-02-21T11:17:47.059Z,101879.42
2019-02-21T11:20:19.077Z,101885.61
2019-02-21T11:22:47.679Z,101886.86
2019-02-21T11:25:16.000Z,101885.40
2019-02-21T11:27:44.385Z,101880.19
2019-02-21T11:30:17.616Z,101882.91
2019-02-21T11:32:46.014Z,101877.73
2019-02-21T11:35:14.628Z,101882.38
2019-02-21T11:37:46.764Z,101883.05
2019-02-21T11:40:15.650Z,101879.89
2019-02-21T11:42:44.611Z,101878.75
2019-02-21T11:45:15.214Z,101882.38
2019-02-21T11:47:44.211Z,101881.31
2019-02-21T11:50:17.914Z,101876.66
2019-02-21T11:52:46.241Z,101882.52
2019-02-21T11:55:22.471Z,101887.87
2019-02-21T11:57:50.986Z,101879.48
2019-02-21T12:00:24.626Z,101877.76
2019-02-21T12:02:53.185Z,101877.77
2019-02-21T12:05:30.366Z,101871.56
2019-02-21T12:07:51.617Z,101878.17
2019-02-21T12:10:19.944Z,101877.20
2019-02-21T12:12:48.253Z,101873.16
2019-02-21T12:15:17.529Z,101864.25
2019-02-21T12:17:45.857Z,101862.92
2019-02-21T12:20:16.209Z,101869.17
2019-02-21T12:22:44.526Z,101865.53
2019-02-21T12:25:15.071Z,101866.28
2019-02-21T12:27:43.369Z,101863.98
2019-02-21T12:30:18.751Z,101851.14
2019-02-21T12:32:47.124Z,101852.06
2019-02-21T12:35:15.527Z,101846.98
2019-02-21T12:37:43.831Z,101846.72
2019-02-21T12:40:22.585Z,101842.02
2019-02-21T12:42:50.887Z,101847.46
2019-02-21T12:45:26.393Z,101853.64
2019-02-21T12:47:55.022Z,101848.56
2019-02-21T12:50:23.335Z,101852.44
2019-02-21T12:52:51.658Z,101855.03
2019-02-21T12:55:28.224Z,101850.66
2019-02-21T12:57:50.011Z,101847.77
2019-02-21T13:00:22.351Z,101851.89
2019-02-21T13:02:50.681Z,101854.05
2019-02-21T13:05:19.061Z,101854.41
2019-02-21T13:07:47.382Z,101869.92
2019-02-21T13:10:21.856Z,101864.72
2019-02-21T13:12:50.181Z,101873.27
2019-02-21T13:15:18.481Z,101870.39
2019-02-21T13:17:46.829Z,101877.02
2019-02-21T13:20:15.468Z,101881.97
2019-02-21T13:22:43.760Z,101889.70
2019-02-21T13:25:14.613Z,101882.31
2019-02-21T13:27:42.913Z,101884.41
2019-02-21T13:30:18.793Z,101873.34
2019-02-21T13:32:47.102Z,101873.00
2019-02-21T13:35:15.423Z,101873.48
2019-02-21T13:37:43.818Z,101874.53
2019-02-21T13:40:14.852Z,101870.41
2019-02-21T13:42:43.144Z,101871.45
2019-02-21T13:45:18.013Z,101879.34
2019-02-21T13:47:46.744Z,101868.47
2019-02-21T13:50:23.721Z,101876.56
2019-02-21T13:52:51.409Z,101871.19
2019-02-21T13:55:19.787Z,101867.09
2019-02-21T13:57:48.103Z,101872.88
2019-02-21T14:00:24.070Z,101876.35
2019-02-21T14:02:52.396Z,101877.86
2019-02-21T14:05:20.699Z,101868.47
2019-02-21T14:07:49.077Z,101862.20
2019-02-21T14:10:17.543Z,101866.11
2019-02-21T14:12:46.029Z,101862.08
2019-02-21T14:15:17.527Z,101861.64
2019-02-21T14:17:46.758Z,101864.56
2019-02-21T14:20:15.464Z,101864.66
2019-02-21T14:22:43.787Z,101861.58
2019-02-21T14:25:12.497Z,101871.77
2019-02-21T14:27:40.802Z,101871.00
2019-02-21T14:30:18.174Z,101876.69
2019-02-21T14:32:46.483Z,101880.23
2019-02-21T14:35:15.568Z,101880.94
2019-02-21T14:37:43.946Z,101883.86
2019-02-21T14:40:13.643Z,101887.70
2019-02-21T14:42:41.959Z,101889.22
2019-02-21T14:45:13.660Z,101890.20
2019-02-21T14:47:42.023Z,101893.95
2019-02-21T14:50:11.881Z,101887.70
2019-02-21T14:52:40.337Z,101889.09
2019-02-21T14:55:11.016Z,101889.31
2019-02-21T14:57:41.217Z,101892.14
2019-02-21T15:00:23.676Z,101887.00
2019-02-21T15:02:51.977Z,101893.89
2019-02-21T15:05:20.786Z,101881.37
2019-02-21T15:07:49.171Z,101879.27
2019-02-21T15:10:17.752Z,101877.85
2019-02-21T15:12:46.383Z,101878.25
2019-02-21T15:15:25.503Z,101885.84
2019-02-21T15:17:53.845Z,101885.16
2019-02-21T15:20:22.500Z,101888.47
2019-02-21T15:22:50.789Z,101896.78
2019-02-21T15:25:19.109Z,101897.73
2019-02-21T15:27:47.429Z,101894.80
2019-02-21T15:30:21.525Z,101895.56
2019-02-21T15:32:50.021Z,101899.45
2019-02-21T15:35:19.507Z,101896.25
2019-02-21T15:37:48.233Z,101907.92
2019-02-21T15:40:16.582Z,101910.45
2019-02-21T15:42:45.159Z,101914.53
2019-02-21T15:45:23.099Z,101915.37
2019-02-21T15:47:46.472Z,101916.57
2019-02-21T15:50:15.393Z,101920.58
2019-02-21T15:52:45.037Z,101920.43
2019-02-21T15:55:15.593Z,101919.00
2019-02-21T15:57:43.953Z,101922.97
2019-02-21T16:00:15.281Z,101919.64
2019-02-21T16:02:43.591Z,101930.82
2019-02-21T16:05:11.957Z,101933.05
2019-02-21T16:07:40.278Z,101931.58
2019-02-21T16:10:19.795Z,101929.08
2019-02-21T16:12:48.662Z,101928.36
2019-02-21T16:15:17.141Z,101926.96
2019-02-21T16:17:45.488Z,101929.11
2019-02-21T16:20:16.233Z,101930.70
2019-02-21T16:22:44.837Z,101931.86
2019-02-21T16:25:22.269Z,101935.37
2019-02-21T16:27:50.608Z,101933.12
2019-02-21T16:30:18.906Z,101935.28
2019-02-21T16:32:47.312Z,101941.77
2019-02-21T16:35:15.653Z,101944.27
2019-02-21T16:37:44.302Z,101941.63
2019-02-21T16:40:14.958Z,101939.48
2019-02-21T16:42:43.304Z,101944.42
2019-02-21T16:45:13.854Z,101948.49
2019-02-21T16:47:42.250Z,101936.03
2019-02-21T16:50:14.891Z,101936.06
2019-02-21T16:52:43.479Z,101931.91
2019-02-21T16:55:21.821Z,101931.91
2019-02-21T16:57:50.151Z,101929.72
2019-02-21T17:00:21.127Z,101929.14
2019-02-21T17:02:52.130Z,101942.75
2019-02-21T17:05:20.582Z,101941.43
2019-02-21T17:07:49.213Z,101954.30
2019-02-21T17:10:18.240Z,101951.28
2019-02-21T17:12:46.531Z,101946.38
2019-02-21T17:15:18.508Z,101953.09
2019-02-21T17:17:46.800Z,101953.58
2019-02-21T17:20:23.161Z,101963.16
2019-02-21T17:22:51.461Z,101961.01
2019-02-21T17:25:19.801Z,101966.43
2019-02-21T17:27:49.723Z,101970.39
2019-02-21T17:30:18.605Z,101976.91
2019-02-21T17:32:47.253Z,101976.77
2019-02-21T17:35:16.009Z,101985.66
2019-02-21T17:37:44.710Z,101986.89
2019-02-21T17:40:24.232Z,101985.68
2019-02-21T17:42:52.835Z,101982.31
2019-02-21T17:45:21.608Z,101987.14
2019-02-21T17:47:49.917Z,101989.30
2019-02-21T17:50:19.167Z,101988.92
2019-02-21T17:52:47.989Z,101994.83
2019-02-21T17:55:17.094Z,101989.06
2019-02-21T17:57:45.419Z,101991.70
2019-02-21T18:00:21.018Z,102001.66
2019-02-21T18:02:49.341Z,102003.09
2019-02-21T18:05:17.979Z,102002.98
2019-02-21T18:07:46.261Z,102009.58
2019-02-21T18:10:15.905Z,102006.56
2019-02-21T18:12:44.355Z,102003.09
2019-02-21T18:15:14.326Z,102007.89
2019-02-21T18:17:42.627Z,102010.33
2019-02-21T18:20:12.947Z,102015.81
2019-02-21T18:22:41.337Z,102009.58
2019-02-21T18:25:18.828Z,102011.64
2019-02-21T18:27:47.133Z,102010.78
2019-02-21T18:30:17.249Z,102011.27
2019-02-21T18:32:45.642Z,102011.89
2019-02-21T18:35:14.237Z,102008.88
2019-02-21T18:37:47.334Z,102014.30
2019-02-21T18:40:20.644Z,102014.98
2019-02-21T18:42:48.459Z,102023.63
2019-02-21T18:45:16.781Z,102024.23
2019-02-21T18:47:45.078Z,102032.39
2019-02-21T18:50:14.516Z,102036.23
2019-02-21T18:52:42.839Z,102044.64
2019-02-21T18:55:11.314Z,102045.97
2019-02-21T18:57:39.714Z,102049.92
2019-02-21T19:00:11.076Z,102054.48
2019-02-21T19:02:39.390Z,102053.16
2019-02-21T19:05:08.757Z,102057.13
2019-02-21T19:07:37.063Z,102058.44
2019-02-21T19:10:08.780Z,102056.88
2019-02-21T19:12:37.109Z,102058.94
2019-02-21T19:15:07.460Z,102053.87
2019-02-21T19:17:35.790Z,102058.92
2019-02-21T19:20:06.217Z,102056.06
2019-02-21T19:22:34.785Z,102058.47
2019-02-21T19:25:03.376Z,102059.55
2019-02-21T19:27:37.039Z,102066.77
2019-02-21T19:30:02.272Z,102061.84
2019-02-21T19:32:30.584Z,102071.57
2019-02-21T19:34:59.226Z,102069.80
2019-02-21T19:37:27.787Z,102066.43
2019-02-21T19:39:56.424Z,102078.06
2019-02-21T19:42:25.079Z,102075.21
2019-02-21T19:44:53.426Z,102066.11
2019-02-21T19:47:21.716Z,102067.67
2019-02-21T19:49:50.021Z,102079.30
2019-02-21T19:52:18.420Z,102086.25
2019-02-21T19:54:46.986Z,102082.88
2019-02-21T19:57:15.302Z,102082.42
2019-02-21T19:59:43.765Z,102083.36
2019-02-21T20:02:12.093Z,102090.58
2019-02-21T20:04:40.709Z,102093.67
2019-02-21T20:07:09.034Z,102103.63
2019-02-21T20:09:37.654Z,102114.55
2019-02-21T20:12:05.983Z,102118.27
2019-02-21T20:14:34.335Z,102117.31
2019-02-21T20:17:02.665Z,102132.65
2019-02-21T20:19:30.965Z,102139.73
2019-02-21T20:21:59.554Z,102142.61
2019-02-21T20:24:27.877Z,102146.78
2019-02-21T20:26:56.184Z,102153.38
2019-02-21T20:29:24.794Z,102156.98
2019-02-21T20:31:53.199Z,102160.92
2019-02-21T20:34:21.533Z,102167.52
2019-02-21T20:36:51.391Z,102172.67
2019-02-21T20:39:19.943Z,102176.28
2019-02-21T20:41:48.257Z,102171.84
2019-02-21T20:44:16.572Z,102180.48
2019-02-21T20:46:44.912Z,102177.84
2019-02-21T20:49:13.562Z,102171.72
2019-02-21T20:51:41.864Z,102177.09
2019-02-21T20:54:12.886Z,102171.38
2019-02-21T20:56:40.563Z,102175.06
2019-02-21T20:59:08.878Z,102173.29
2019-02-21T21:01:37.505Z,102174.71
2019-02-21T21:04:05.800Z,102171.83
2019-02-21T21:06:34.475Z,102179.52
2019-02-21T21:09:04.534Z,102178.53
2019-02-21T21:11:32.847Z,102188.59
2019-02-21T21:14:01.150Z,102191.94
2019-02-21T21:16:29.549Z,102189.66
2019-02-21T21:18:57.857Z,102195.41
2019-02-21T21:21:26.182Z,102200.81
2019-02-21T21:23:54.493Z,102200.33
2019-02-21T21:26:22.817Z,102210.75
2019-02-21T21:28:51.155Z,102206.80
2019-02-21T21:31:19.804Z,102213.88
2019-02-21T21:33:48.098Z,102211.33
2019-02-21T21:36:16.492Z,102204.84
2019-02-21T21:38:53.603Z,102201.72
2019-02-21T21:41:14.907Z,102197.06
2019-02-21T21:43:43.220Z,102199.95
2019-02-21T21:46:11.545Z,102202.95
2019-02-21T21:48:39.855Z,102210.85
2019-02-21T21:51:08.153Z,102208.57
2019-02-21T21:53:36.577Z,102205.55
2019-02-21T21:56:04.956Z,102205.78
2019-02-21T21:58:33.266Z,102216.09
2019-02-21T22:01:01.561Z,102217.89
2019-02-21T22:03:29.886Z,102219.21
2019-02-21T22:05:58.190Z,102218.48
2019-02-21T22:08:26.808Z,102216.55
2019-02-21T22:10:55.115Z,102224.33
2019-02-21T22:13:23.448Z,102226.96
2019-02-21T22:15:51.760Z,102232.36
2019-02-21T22:18:20.064Z,102232.13
2019-02-21T22:20:48.395Z,102224.45
2019-02-21T22:23:16.706Z,102232.13
2019-02-21T22:25:45.025Z,102239.20
2019-02-21T22:28:13.345Z,102242.77
2019-02-21T22:30:41.664Z,102245.89
2019-02-21T22:33:09.978Z,102242.77
2019-02-21T22:35:38.399Z,102243.83
2019-02-21T22:38:06.717Z,102240.97
2019-02-21T22:40:35.042Z,102245.50
2019-02-21T22:43:03.356Z,102246.95
2019-02-21T22:45:31.699Z,102246.72
2019-02-21T22:48:00.011Z,102254.05
2019-02-21T22:50:28.624Z,102250.81
2019-02-21T22:52:56.953Z,102252.25
2019-02-21T22:55:25.263Z,102263.05
2019-02-21T22:57:53.881Z,102260.03
2019-02-21T23:00:38.511Z,102255.14
2019-02-21T23:03:09.232Z,102258.27
2019-02-21T23:05:49.447Z,102253.45
2019-02-21T23:08:42.036Z,102255.85
2019-02-21T23:11:10.695Z,102258.72
2019-02-21T23:13:39.531Z,102259.10
2019-02-21T23:16:07.937Z,102264.47
2019-02-21T23:18:36.289Z,102265.43
2019-02-21T23:21:04.842Z,102274.78
2019-02-21T23:23:33.165Z,102274.39
2019-02-21T23:26:01.723Z,102274.13
2019-02-21T23:28:30.035Z,102279.05
2019-02-21T23:30:58.703Z,102289.49
2019-02-21T23:33:28.113Z,102277.16
2019-02-21T23:35:56.396Z,102283.36
2019-02-21T23:38:24.707Z,102279.89
2019-02-21T23:40:53.008Z,102285.90
2019-02-21T23:43:21.304Z,102278.22
2019-02-21T23:45:49.625Z,102279.66
2019-02-21T23:48:17.940Z,102282.39
2019-02-21T23:50:46.265Z,102281.06
2019-02-21T23:53:14.595Z,102285.50
2019-02-21T23:55:43.203Z,102293.67
2019-02-21T23:58:11.510Z,102288.88
